Tucumcari Municipal Airport
KTCC : now visible

Airfield :











YOU CAN JOIN US ON...

 
LOGIN :

Register | Disclaimer

   EN    FR    IT 

 









Legend :    VFR   Marginal VFR   IFR   Intensive IFR   Very Intensive IFR
Visi :
Ceiling :
>= 8 km
>= 3000ft
5 to 8 km
1000 to 3000 ft
1500m to 5 km
500 to 1000 ft
800 to 1500m
200 to 500 ft
< 800m
< 200 ft
Symbols :   Thunderstorms  Fog  Heavy snow  Heavy precipitations  Wind > 20 kt






- Airport Elevation : 4065 ft


KTCC - Tucumcari Municipal

CURRENT METAR :
  • 180653Z AUTO 08012KT 10SM OVC029 07/M04 A3001 RMK AO2 SLP141 T00671039 401720033 $

EXPIRED METARs :
  • 180638Z AUTO 08012KT 10SM BKN028 07/M03 A3000 RMK AO2 T00671028 $
  • 180553Z AUTO 06009KT 10SM FEW025 OVC110 07/01 A3000 RMK AO2 SLP136 T00670006 10094 20050 51025 $
  • 180516Z AUTO 04007KT 10SM BKN025 BKN090 07/03 A2999 RMK AO2 T00670033 $
  • 180453Z AUTO 03010KT 9SM FEW095 SCT120 06/03 A2998 RMK AO2 SLP128 T00610028 $
  • 180353Z AUTO 05004KT 10SM SCT120 06/03 A2994 RMK AO2 SLP120 T00560028 $

TAF KTCC
Valid from the 18 at 07:00 until the 19 at 06:00 UTC


180641Z 1807/1906 05010KT P6SM SCT025 BKN040
TEMPO 1807/1811 BKN025
FM181100 06007KT P6SM OVC022
FM181400 07010KT P6SM OVC018
FM182200 10008KT P6SM OVC035
FM190300 14007KT P6SM OVC040



MET'MAP, your aeronautical weather chart ! - Copyright ORBIFLY December 2007 - Disclaimer

ORBIFLY MET'MAP TEAM :

Programming & Development : Alexandra Zaïnal
Concept & original design : Baudouin d'Aumeries
Assistance for programming : Marc-Olivier Méhu
Technical & hardware support : Manuel Goepfert

Contact : metmap@orbifly.com




SOURCES & CREDITS :

   NOAA       Earth
Advisory